Share

Zakho, Iraq

Mosul (ORBM) Elev 732 ft | 36.31 °N, 43.15 °E | Change Station

Current weather conditions updated 30 minutes ago

Clear
Clear
68 °F
Feels Like 68 °F
N
9
Wind Variable Wind from ENE
Sunrise 5:31 AM
Sunset 6:46 PM
Moon Waning Gibbous

Today is forecast to be nearly the same temperature as yesterday.

Pressure 29.77 in
Visibility -9999.0 miles
Clouds
Dew Point 54 °F
Humidity 60%
Rainfall 0.00 in
Snow Depth Not available.
UV Not available.
Pollen Not available.
Air Quality Not available.
Flu Activity Not available.
METAR ORBM 180100Z 07008KT CAVOK 20/12 Q1008 NOSIG

More Conditions Fewer Conditions

Pressure 29.77 in
Visibility -9999.0 miles
Clouds
Dew Point 54 °F
Humidity 60%
Rainfall 0.00 in
Snow Depth Not available.
UV Not available.
Pollen Not available.
Air Quality Not available.
Flu Activity Not available.
METAR ORBM 180100Z 07008KT CAVOK 20/12 Q1008 NOSIG

More Conditions Fewer Conditions

10-Day Forecast

Almanac

Astronomy

Apr. 18, 2014 Rise Set
Actual Time 5:31 AM AST 6:46 PM AST
Civil Twilight 5:04 AM AST 7:13 PM AST
Nautical Twilight 4:32 AM AST 7:45 PM AST
Astronomical Twilight 3:58 AM AST 8:19 PM AST
Moon 10:07 PM AST 7:37 AM AST
Length of Visible Light 14h 09m
Length of Day
13h 15m
Tomorrow will be 2m 13s longer.
Waning Gibbous, 91% of the Moon is Illuminated
Apr 17
Waning Gibbous
Apr 22
Last Quarter
Apr 29
New
May 6
First Quarter
May 14
Full

Yesterday's Extremes

Country Highs Country Lows

Community

  • Morning Light
    Morning Light
  • New Day
    New Day
  • Lake Michigan Sunrise
    Lake Michigan Sunrise
  • sunset from izmir, narlıdere
    sunset from izmir, narlıdere
  • oregon cherry
    oregon cherry

WunderPhotos

Upload Photos

1,702,210 photos uploaded!

WunderBlogs® & News

Nearby

Snow Depth

Not available.

Coastal Water Temperatures

Place Temperature
No Stations Reporting

Earthquake Activity

City Distance Mag. Time & Date
No recent earthquake activity has been reported nearby.
Minimum magnitude displayed is 2.5.

Nearby Weather Stations

There are no personal weather stations in this area.

What do you think?

We're not finished. Please let us know what you like, what you don't like, and what you are still missing.